Time;durP1;ratioP1;P1;durP2;ratioP2;P2;SDS_P1;SDS_P2;PMS_P1;PMS_P2;Temp;Humidity;BMP_temperature;BMP_pressure;BME280_temperature;BME280_humidity;BME280_pressure;Samples;Min_cycle;Max_cycle;Signal;HPM_P1;HPM_P2
2023/10/30 00:00:32;;;;;;;12.82;0.80;;;8.80;99.90;;;;;;4975578;28;20148;-75
2023/10/30 00:02:58;;;;;;;8.38;1.30;;;8.40;99.90;;;;;;4978233;28;20539;-75
2023/10/30 00:05:24;;;;;;;9.02;0.73;;;8.40;99.90;;;;;;4971852;28;20055;-76
2023/10/30 00:07:50;;;;;;;8.95;1.20;;;8.30;99.90;;;;;;4972824;28;20064;-73
2023/10/30 00:10:16;;;;;;;8.23;1.10;;;8.30;99.90;;;;;;4971717;28;20097;-74
2023/10/30 00:12:45;;;;;;;7.82;0.70;;;8.30;99.90;;;;;;4980998;28;20062;-75
2023/10/30 00:15:11;;;;;;;7.70;0.80;;;8.30;99.90;;;;;;4963334;28;20750;-75
2023/10/30 00:17:37;;;;;;;5.05;0.65;;;8.30;99.90;;;;;;4961508;28;20057;-74
2023/10/30 00:20:03;;;;;;;8.15;1.10;;;8.30;99.90;;;;;;4960810;28;20057;-74
2023/10/30 00:22:29;;;;;;;7.25;1.30;;;8.20;99.90;;;;;;4960386;28;20061;-74
2023/10/30 00:24:55;;;;;;;10.50;0.82;;;8.20;99.90;;;;;;4975257;28;20403;-74
2023/10/30 00:27:21;;;;;;;7.30;0.70;;;8.20;99.90;;;;;;4978873;28;20093;-74
2023/10/30 00:29:47;;;;;;;5.20;1.13;;;8.10;99.90;;;;;;4972386;28;20046;-73
2023/10/30 00:32:12;;;;;;;11.48;1.63;;;8.10;99.90;;;;;;4964749;28;20758;-73
2023/10/30 00:34:41;;;;;;;11.10;1.30;;;8.40;99.90;;;;;;4974946;28;20041;-73
2023/10/30 00:37:28;;;;;;;9.77;1.17;;;5.70;99.90;;;;;;4988577;28;20055;-75
2023/10/30 00:39:53;;;;;;;5.28;1.38;;;8.00;99.90;;;;;;4972765;28;20129;-72
2023/10/30 00:42:26;;;;;;;9.57;1.52;;;7.90;99.90;;;;;;4979496;28;20653;-74
2023/10/30 00:44:52;;;;;;;7.22;1.40;;;8.20;99.90;;;;;;4991269;28;20073;-76
2023/10/30 00:47:26;;;;;;;6.38;1.00;;;8.00;99.90;;;;;;4995074;28;20447;-76
2023/10/30 00:49:51;;;;;;;11.88;1.83;;;8.00;99.90;;;;;;4993091;28;20534;-74
2023/10/30 00:52:19;;;;;;;9.23;1.50;;;8.00;99.90;;;;;;4993478;28;20049;-74
2023/10/30 00:54:45;;;;;;;7.53;1.38;;;7.90;99.90;;;;;;4976008;28;20413;-73
2023/10/30 00:57:11;;;;;;;8.57;1.65;;;7.90;99.90;;;;;;5001197;28;20049;-74
2023/10/30 00:59:37;;;;;;;9.25;1.77;;;8.00;99.90;;;;;;5000534;28;20126;-75
2023/10/30 01:02:12;;;;;;;7.13;1.52;;;7.90;99.90;;;;;;4980506;28;20049;-73
2023/10/30 01:04:38;;;;;;;5.75;1.45;;;7.90;99.90;;;;;;4986147;28;20709;-73
2023/10/30 01:07:11;;;;;;;10.82;1.33;;;7.90;99.90;;;;;;4996533;28;20131;-73
2023/10/30 01:09:37;;;;;;;5.85;1.50;;;9.50;99.90;;;;;;4998644;28;20049;-74
2023/10/30 01:12:03;;;;;;;9.18;1.70;;;7.90;99.90;;;;;;4980735;28;20057;-73
2023/10/30 01:14:29;;;;;;;7.00;1.08;;;7.90;99.90;;;;;;4995719;28;20054;-76
2023/10/30 01:16:55;;;;;;;5.78;1.92;;;7.80;99.90;;;;;;4996961;28;20613;-75
2023/10/30 01:19:20;;;;;;;11.05;1.90;;;8.90;99.90;;;;;;4997626;28;20088;-74
2023/10/30 01:21:46;;;;;;;11.00;1.95;;;7.80;99.90;;;;;;4997824;28;20487;-75
2023/10/30 01:24:15;;;;;;;7.45;1.25;;;8.20;99.90;;;;;;4991796;28;20422;-74
2023/10/30 01:27:07;;;;;;;7.75;1.40;;;7.70;99.90;;;;;;4973238;28;20279;-75
2023/10/30 01:29:35;;;;;;;8.68;1.52;;;7.70;99.90;;;;;;4989167;28;20065;-74
2023/10/30 01:32:04;;;;;;;7.03;1.90;;;8.30;99.90;;;;;;4981565;28;20157;-76
2023/10/30 01:34:29;;;;;;;12.60;1.95;;;7.70;99.90;;;;;;4997323;28;20143;-75
2023/10/30 01:36:57;;;;;;;10.38;1.50;;;8.90;99.90;;;;;;4989795;28;20133;-74
2023/10/30 01:39:23;;;;;;;8.70;1.40;;;8.00;99.90;;;;;;4978886;28;20682;-74
2023/10/30 01:41:56;;;;;;;6.68;1.60;;;8.00;99.90;;;;;;4995412;28;20137;-75
2023/10/30 01:44:25;;;;;;;11.20;1.80;;;7.60;99.90;;;;;;4980167;28;20062;-74
2023/10/30 01:46:53;;;;;;;11.55;3.22;;;7.60;99.90;;;;;;4961189;28;20142;-74
2023/10/30 01:49:19;;;;;;;4.10;1.40;;;8.80;99.90;;;;;;4976522;28;20054;-75
2023/10/30 01:51:48;;;;;;;6.97;1.92;;;7.60;99.90;;;;;;4975739;28;20487;-75
2023/10/30 01:54:14;;;;;;;13.68;1.70;;;7.60;99.90;;;;;;4973449;28;20136;-73
2023/10/30 01:56:50;;;;;;;13.50;1.83;;;7.60;99.90;;;;;;4965710;28;20133;-75
2023/10/30 01:59:16;;;;;;;12.73;2.05;;;7.60;99.90;;;;;;4941212;28;20061;-74
2023/10/30 02:01:41;;;;;;;8.18;2.17;;;7.60;99.90;;;;;;4947514;28;20165;-73
2023/10/30 02:04:07;;;;;;;9.77;1.70;;;7.70;99.90;;;;;;4962670;28;20137;-74
2023/10/30 02:06:33;;;;;;;9.68;1.67;;;7.60;99.90;;;;;;4966154;28;20538;-74
2023/10/30 02:09:00;;;;;;;9.35;1.90;;;7.60;99.90;;;;;;4962270;28;20149;-75
2023/10/30 02:11:26;;;;;;;16.23;2.90;;;7.60;99.90;;;;;;4961294;28;20046;-73
2023/10/30 02:13:55;;;;;;;13.88;1.55;;;7.90;99.90;;;;;;4945617;28;20113;-72
2023/10/30 02:16:21;;;;;;;11.77;1.45;;;8.10;99.90;;;;;;4976746;28;20141;-74
2023/10/30 02:18:47;;;;;;;12.75;1.88;;;7.70;99.90;;;;;;4972834;28;20166;-74
2023/10/30 02:21:13;;;;;;;13.10;3.08;;;7.70;99.90;;;;;;4978206;28;20487;-74
2023/10/30 02:23:39;;;;;;;5.55;1.40;;;7.70;99.90;;;;;;4994777;28;20112;-74
2023/10/30 02:26:07;;;;;;;13.70;3.08;;;7.60;99.90;;;;;;4978291;28;20059;-76
2023/10/30 02:28:40;;;;;;;8.43;1.77;;;7.60;99.90;;;;;;4970036;28;20112;-76
2023/10/30 02:31:06;;;;;;;11.00;2.08;;;7.70;99.90;;;;;;4959455;28;20080;-74
2023/10/30 02:33:35;;;;;;;17.27;2.38;;;7.60;99.90;;;;;;4946267;28;20058;-76
2023/10/30 02:36:00;;;;;;;11.88;1.83;;;7.70;99.90;;;;;;4977824;28;20439;-73
2023/10/30 02:38:26;;;;;;;9.48;1.92;;;7.70;99.90;;;;;;4977737;28;20056;-75
2023/10/30 02:40:52;;;;;;;8.90;1.60;;;7.70;99.90;;;;;;4960633;28;20442;-75
2023/10/30 02:43:18;;;;;;;14.90;2.25;;;7.70;99.90;;;;;;4974634;28;20085;-74
2023/10/30 02:45:44;;;;;;;14.70;1.98;;;7.80;99.90;;;;;;4988924;28;20129;-75
2023/10/30 02:48:10;;;;;;;9.50;1.58;;;7.80;99.90;;;;;;4991115;28;20118;-75
2023/10/30 02:50:42;;;;;;;18.80;2.30;;;8.90;99.90;;;;;;4985142;28;20810;-72
2023/10/30 02:53:08;;;;;;;14.55;2.25;;;8.40;99.90;;;;;;4988860;28;20133;-75
2023/10/30 02:55:33;;;;;;;18.92;2.72;;;7.80;99.90;;;;;;4991627;28;20133;-74
2023/10/30 02:57:59;;;;;;;13.52;1.75;;;9.00;99.90;;;;;;4978222;28;20049;-74
2023/10/30 03:00:25;;;;;;;13.10;1.80;;;7.80;99.90;;;;;;4969694;28;20054;-75
2023/10/30 03:02:51;;;;;;;12.63;1.73;;;8.60;99.90;;;;;;4991139;28;20050;-72
2023/10/30 03:05:17;;;;;;;17.73;1.98;;;9.10;99.90;;;;;;4981439;28;20786;-75
2023/10/30 03:07:42;;;;;;;9.30;1.50;;;7.80;99.90;;;;;;5005282;28;20709;-74
2023/10/30 03:10:09;;;;;;;9.82;1.80;;;7.80;99.90;;;;;;4997094;28;20057;-73
2023/10/30 03:12:34;;;;;;;12.00;1.90;;;7.80;99.90;;;;;;4995230;28;20065;-73
2023/10/30 03:15:01;;;;;;;13.85;1.95;;;7.80;99.90;;;;;;4994687;28;20049;-72
2023/10/30 03:17:26;;;;;;;12.25;1.80;;;7.80;99.90;;;;;;5002171;28;20085;-73
2023/10/30 03:19:52;;;;;;;10.38;1.95;;;7.70;99.90;;;;;;4989964;28;20149;-76
2023/10/30 03:22:19;;;;;;;15.50;1.48;;;7.80;99.90;;;;;;4970577;28;20060;-74
2023/10/30 03:24:45;;;;;;;14.30;2.03;;;7.60;99.90;;;;;;5008837;28;20058;-75
2023/10/30 03:27:11;;;;;;;19.30;3.53;;;7.80;99.90;;;;;;4978028;28;20057;-74
2023/10/30 03:29:37;;;;;;;16.05;2.30;;;7.80;99.90;;;;;;4999300;28;20050;-72
2023/10/30 03:32:03;;;;;;;17.77;2.03;;;7.70;99.90;;;;;;4989564;28;20049;-74
2023/10/30 03:34:28;;;;;;;17.20;3.80;;;7.70;99.90;;;;;;4996577;28;20042;-74
2023/10/30 03:36:54;;;;;;;13.32;1.80;;;7.80;99.90;;;;;;4997872;28;20051;-75
2023/10/30 03:39:20;;;;;;;15.98;1.95;;;7.70;99.90;;;;;;4992656;28;20502;-76
2023/10/30 03:41:46;;;;;;;15.88;2.00;;;7.70;99.90;;;;;;4991105;28;20038;-73
2023/10/30 03:44:11;;;;;;;17.70;1.58;;;7.70;99.90;;;;;;4998030;28;20151;-74
2023/10/30 03:46:37;;;;;;;14.55;2.30;;;8.30;99.90;;;;;;5001026;28;20387;-73
2023/10/30 03:49:03;;;;;;;18.08;2.55;;;7.70;99.90;;;;;;4995548;28;20054;-75
2023/10/30 03:51:29;;;;;;;16.60;2.20;;;7.70;99.90;;;;;;4995346;28;20064;-74
2023/10/30 03:53:57;;;;;;;18.25;2.33;;;7.90;99.90;;;;;;4969117;28;20136;-75
2023/10/30 03:56:23;;;;;;;13.43;1.83;;;7.80;99.90;;;;;;4992881;28;20054;-73
2023/10/30 03:58:49;;;;;;;20.58;3.15;;;7.80;99.90;;;;;;4990177;28;20041;-74
2023/10/30 04:01:17;;;;;;;18.80;2.20;;;7.70;99.90;;;;;;4973574;28;20061;-77
2023/10/30 04:03:43;;;;;;;19.30;2.08;;;7.80;99.90;;;;;;5006741;28;20056;-74
2023/10/30 04:06:09;;;;;;;19.00;2.00;;;8.20;99.90;;;;;;4994682;28;20046;-75
2023/10/30 04:08:35;;;;;;;20.60;1.90;;;7.80;99.90;;;;;;4979518;28;20089;-73
2023/10/30 04:11:11;;;;;;;10.15;1.67;;;8.10;99.90;;;;;;5008389;28;20111;-75
2023/10/30 04:13:36;;;;;;;18.33;2.53;;;7.80;99.90;;;;;;4966882;28;20041;-73
2023/10/30 04:16:03;;;;;;;16.58;2.75;;;7.80;99.90;;;;;;4970403;28;20057;-73
2023/10/30 04:18:32;;;;;;;14.18;2.22;;;7.80;99.90;;;;;;4981611;28;20057;-75
2023/10/30 04:21:07;;;;;;;19.83;1.92;;;7.80;99.90;;;;;;4983697;28;20199;-73
2023/10/30 04:23:33;;;;;;;17.75;2.15;;;7.80;99.90;;;;;;4990344;28;20049;-73
2023/10/30 04:25:59;;;;;;;15.93;1.58;;;8.30;99.90;;;;;;4993639;28;20187;-73
2023/10/30 04:28:24;;;;;;;16.45;2.10;;;7.80;99.90;;;;;;4969947;28;20046;-73
2023/10/30 04:30:53;;;;;;;21.17;2.42;;;7.90;99.90;;;;;;4973978;28;20397;-73
2023/10/30 04:33:19;;;;;;;16.05;2.00;;;7.80;99.90;;;;;;4999379;28;20053;-73
2023/10/30 04:35:55;;;;;;;14.80;2.55;;;7.80;99.90;;;;;;4978413;28;20715;-72
2023/10/30 04:38:24;;;;;;;16.13;1.63;;;7.90;99.90;;;;;;5009280;28;20045;-73
2023/10/30 04:40:49;;;;;;;13.57;1.95;;;7.80;99.90;;;;;;5007659;28;20053;-74
2023/10/30 04:43:17;;;;;;;21.30;2.90;;;7.80;99.90;;;;;;4990942;28;20054;-74
2023/10/30 04:45:43;;;;;;;22.73;3.63;;;8.00;99.90;;;;;;4971055;28;20062;-74
2023/10/30 04:48:09;;;;;;;15.57;1.58;;;7.80;99.90;;;;;;4981587;28;20049;-75
2023/10/30 04:50:35;;;;;;;21.00;2.30;;;7.80;99.90;;;;;;4992133;28;20041;-74
2023/10/30 04:53:00;;;;;;;15.95;1.92;;;9.20;99.90;;;;;;4994197;28;20111;-74
2023/10/30 04:55:26;;;;;;;17.10;2.00;;;7.70;99.90;;;;;;4973568;28;20410;-73
2023/10/30 04:57:52;;;;;;;20.35;3.80;;;7.40;99.90;;;;;;4977662;28;20060;-75
2023/10/30 05:00:18;;;;;;;19.08;2.30;;;8.50;99.90;;;;;;4998523;28;20064;-75
2023/10/30 05:02:46;;;;;;;14.35;1.92;;;7.70;99.90;;;;;;5011865;28;20047;-75
2023/10/30 05:05:16;;;;;;;15.13;1.40;;;8.00;99.90;;;;;;4994052;28;20049;-74
2023/10/30 05:07:44;;;;;;;19.02;1.83;;;7.70;99.90;;;;;;4978315;28;20107;-77
2023/10/30 05:10:11;;;;;;;20.63;2.67;;;7.60;99.90;;;;;;4988733;28;20461;-73
2023/10/30 05:12:37;;;;;;;14.00;1.63;;;7.60;99.90;;;;;;4977286;28;20084;-76
2023/10/30 05:15:05;;;;;;;13.93;2.03;;;8.10;99.90;;;;;;4986047;28;20050;-74
2023/10/30 05:17:34;;;;;;;18.77;3.15;;;7.60;99.90;;;;;;4970806;28;20108;-73
2023/10/30 05:19:59;;;;;;;12.85;1.33;;;7.70;99.90;;;;;;4980180;28;20061;-73
2023/10/30 05:22:27;;;;;;;19.02;2.15;;;8.00;99.90;;;;;;4969236;28;20096;-74
2023/10/30 05:24:53;;;;;;;18.75;2.15;;;8.20;99.90;;;;;;4972620;28;20084;-74
2023/10/30 05:27:23;;;;;;;14.43;2.17;;;7.60;99.90;;;;;;4976275;28;20538;-72
2023/10/30 05:29:52;;;;;;;14.07;1.80;;;7.60;99.90;;;;;;4971509;28;20046;-74
2023/10/30 05:32:17;;;;;;;19.60;2.60;;;7.60;99.90;;;;;;4997017;28;20135;-73
2023/10/30 05:34:44;;;;;;;17.35;1.55;;;7.80;99.90;;;;;;4985214;28;20149;-75
2023/10/30 05:37:10;;;;;;;19.05;1.80;;;7.60;99.90;;;;;;4981434;28;20208;-75
2023/10/30 05:39:36;;;;;;;15.25;2.53;;;7.60;99.90;;;;;;5005455;28;20562;-75
2023/10/30 05:42:05;;;;;;;20.73;2.70;;;7.50;99.90;;;;;;4972261;28;20049;-76
2023/10/30 05:44:33;;;;;;;19.30;3.38;;;7.60;99.90;;;;;;4987856;28;20134;-77
2023/10/30 05:47:03;;;;;;;13.32;1.90;;;7.60;99.90;;;;;;4984782;28;20048;-73
2023/10/30 05:49:29;;;;;;;17.23;1.98;;;4.60;99.90;;;;;;4995835;28;20053;-73
2023/10/30 05:51:56;;;;;;;14.73;1.50;;;7.60;99.90;;;;;;4977197;28;20319;-75
2023/10/30 05:54:22;;;;;;;12.80;1.75;;;5.90;99.90;;;;;;4972220;28;20064;-73
2023/10/30 05:56:49;;;;;;;10.88;1.88;;;7.50;99.90;;;;;;5000968;28;20053;-75
2023/10/30 05:59:15;;;;;;;16.75;1.80;;;7.50;99.90;;;;;;4980530;28;20053;-71
2023/10/30 06:01:42;;;;;;;25.02;2.65;;;7.50;99.90;;;;;;4989911;28;20057;-74
2023/10/30 06:04:07;;;;;;;22.88;3.05;;;7.80;99.90;;;;;;4989255;28;20089;-74
2023/10/30 06:06:34;;;;;;;18.40;2.03;;;7.50;99.90;;;;;;5014297;28;20103;-74
2023/10/30 06:09:05;;;;;;;18.65;3.08;;;7.50;99.90;;;;;;5003212;28;20053;-73
2023/10/30 06:11:33;;;;;;;22.00;1.77;;;7.50;99.90;;;;;;4980050;28;20528;-75
2023/10/30 06:14:07;;;;;;;14.80;1.50;;;8.60;99.90;;;;;;4985844;28;20118;-74
2023/10/30 06:16:35;;;;;;;17.38;1.75;;;7.90;99.90;;;;;;4997268;28;20053;-73
2023/10/30 06:19:03;;;;;;;19.67;2.35;;;7.80;99.90;;;;;;4995714;28;20418;-75
2023/10/30 06:21:35;;;;;;;12.93;2.58;;;7.90;99.90;;;;;;4998332;28;20593;-73
2023/10/30 06:24:01;;;;;;;19.20;2.20;;;7.50;99.90;;;;;;5005695;28;20496;-73
2023/10/30 06:26:26;;;;;;;11.82;2.05;;;7.60;99.90;;;;;;4985628;28;20054;-72
2023/10/30 06:28:52;;;;;;;14.95;2.05;;;7.60;99.90;;;;;;4978558;28;20517;-75
2023/10/30 06:31:19;;;;;;;20.42;2.25;;;7.70;99.90;;;;;;4992629;28;20046;-76
2023/10/30 06:33:46;;;;;;;21.92;2.42;;;7.60;99.90;;;;;;4994375;28;20137;-73
2023/10/30 06:36:12;;;;;;;22.13;2.75;;;8.10;99.90;;;;;;4996153;28;20108;-75
2023/10/30 06:38:38;;;;;;;21.48;2.53;;;7.70;99.90;;;;;;4985227;28;20050;-75
2023/10/30 06:41:05;;;;;;;22.92;3.25;;;8.00;99.90;;;;;;5001474;28;20060;-75
2023/10/30 06:43:35;;;;;;;17.60;2.38;;;7.80;99.90;;;;;;4990491;28;20061;-73
2023/10/30 06:46:01;;;;;;;23.48;2.80;;;7.80;99.90;;;;;;4983529;28;20092;-73
2023/10/30 06:48:28;;;;;;;23.25;3.65;;;8.00;99.90;;;;;;4977719;28;20592;-74
2023/10/30 06:50:55;;;;;;;28.23;3.33;;;7.90;99.90;;;;;;4980736;28;20050;-73
2023/10/30 06:53:21;;;;;;;20.00;2.97;;;7.90;99.90;;;;;;4995913;28;20053;-75
2023/10/30 06:55:47;;;;;;;29.75;3.92;;;8.00;99.90;;;;;;5004916;28;20541;-75
2023/10/30 06:58:38;;;;;;;18.40;2.92;;;8.00;99.90;;;;;;4996161;28;20124;-76
2023/10/30 07:01:07;;;;;;;21.65;2.67;;;8.10;99.90;;;;;;4997297;28;20054;-75
2023/10/30 07:03:34;;;;;;;20.95;2.85;;;8.20;99.90;;;;;;4975084;28;20046;-75
2023/10/30 07:06:00;;;;;;;17.10;2.65;;;8.20;99.90;;;;;;5007671;28;20052;-74
2023/10/30 07:08:35;;;;;;;24.67;2.80;;;8.30;99.90;;;;;;4991380;28;20049;-73
2023/10/30 07:11:01;;;;;;;19.45;3.08;;;8.40;99.90;;;;;;5004229;28;20122;-74
2023/10/30 07:13:27;;;;;;;24.13;2.88;;;8.50;99.90;;;;;;4997410;28;20042;-75
2023/10/30 07:15:52;;;;;;;18.50;2.40;;;8.50;99.90;;;;;;4992839;28;20122;-74
2023/10/30 07:18:28;;;;;;;17.50;2.75;;;8.60;99.90;;;;;;5004455;28;20080;-75
2023/10/30 07:20:57;;;;;;;27.20;3.63;;;8.60;99.90;;;;;;4972438;28;20093;-75
2023/10/30 07:23:25;;;;;;;16.02;3.28;;;8.70;99.90;;;;;;4993276;28;20479;-75
2023/10/30 07:25:51;;;;;;;23.42;3.45;;;8.60;99.90;;;;;;4990193;28;20058;-74
2023/10/30 07:28:20;;;;;;;14.98;2.17;;;8.80;99.90;;;;;;5011309;28;20084;-74
2023/10/30 07:30:45;;;;;;;25.42;3.75;;;8.70;99.90;;;;;;4993552;28;20995;-73
2023/10/30 07:33:11;;;;;;;16.88;2.85;;;8.70;99.90;;;;;;4985397;28;20111;-74
2023/10/30 07:35:37;;;;;;;19.30;3.05;;;9.10;99.90;;;;;;4996700;28;20077;-75
2023/10/30 07:38:03;;;;;;;17.50;2.42;;;8.80;99.90;;;;;;5006078;28;20056;-75
2023/10/30 07:40:29;;;;;;;20.65;3.17;;;8.80;99.90;;;;;;5005111;28;20050;-74
2023/10/30 07:42:55;;;;;;;19.85;3.35;;;8.90;99.90;;;;;;4981480;28;20060;-74
2023/10/30 07:45:21;;;;;;;16.80;2.33;;;8.90;99.90;;;;;;4994957;28;20041;-75
2023/10/30 07:47:47;;;;;;;15.25;2.45;;;8.90;99.90;;;;;;4997871;28;20108;-76
2023/10/30 07:50:13;;;;;;;14.55;3.08;;;9.00;99.90;;;;;;4995415;28;20046;-75
2023/10/30 07:52:39;;;;;;;17.63;2.90;;;9.10;99.90;;;;;;4984142;28;20298;-72
2023/10/30 07:55:05;;;;;;;10.38;2.17;;;9.10;99.90;;;;;;4982700;28;20050;-73
2023/10/30 07:57:31;;;;;;;17.95;2.08;;;9.10;99.90;;;;;;4988655;28;20062;-74
2023/10/30 07:59:57;;;;;;;20.45;2.78;;;9.20;99.90;;;;;;5010808;28;20054;-75
2023/10/30 08:02:26;;;;;;;17.02;3.63;;;9.20;99.90;;;;;;5011964;28;20051;-74
2023/10/30 08:04:51;;;;;;;15.45;2.22;;;9.30;99.90;;;;;;4979840;28;20049;-73
2023/10/30 08:07:20;;;;;;;16.95;2.83;;;9.40;99.90;;;;;;5014248;28;20075;-74
2023/10/30 08:09:45;;;;;;;12.50;2.45;;;12.60;99.90;;;;;;4982049;28;20135;-74
2023/10/30 08:12:12;;;;;;;17.65;2.10;;;9.50;99.90;;;;;;4999330;28;20410;-75
2023/10/30 08:14:37;;;;;;;22.15;2.55;;;9.60;99.90;;;;;;4971493;28;20049;-71
2023/10/30 08:17:03;;;;;;;20.48;3.65;;;9.60;99.90;;;;;;4981301;28;20080;-74
2023/10/30 08:19:29;;;;;;;15.52;2.17;;;9.70;99.90;;;;;;4993568;28;20099;-75
2023/10/30 08:21:55;;;;;;;15.27;2.70;;;9.70;99.90;;;;;;4994954;28;20056;-76
2023/10/30 08:24:23;;;;;;;17.83;3.42;;;9.80;99.90;;;;;;5000659;28;20747;-74
2023/10/30 08:26:49;;;;;;;18.13;3.05;;;9.90;99.90;;;;;;4984076;28;20499;-75
2023/10/30 08:29:15;;;;;;;25.90;2.60;;;10.00;99.90;;;;;;4997834;28;20055;-75
2023/10/30 08:31:41;;;;;;;14.13;1.98;;;10.00;99.90;;;;;;5005092;28;20548;-75
2023/10/30 08:34:14;;;;;;;17.05;2.58;;;10.10;99.90;;;;;;5009678;28;20555;-76
2023/10/30 08:36:40;;;;;;;20.23;2.72;;;9.80;99.90;;;;;;5010554;28;20108;-74
2023/10/30 08:39:09;;;;;;;14.73;1.95;;;10.20;99.90;;;;;;4993037;28;20054;-76
2023/10/30 08:41:36;;;;;;;18.23;2.75;;;10.20;99.90;;;;;;5002921;28;20127;-75
2023/10/30 08:44:02;;;;;;;17.13;2.05;;;10.30;99.90;;;;;;5005277;28;20220;-74
2023/10/30 08:46:29;;;;;;;16.80;2.63;;;10.40;99.90;;;;;;4989520;28;20595;-74
2023/10/30 08:48:58;;;;;;;20.75;2.53;;;10.40;99.90;;;;;;4982298;28;20592;-75
2023/10/30 08:51:23;;;;;;;17.85;2.53;;;10.50;99.90;;;;;;4969623;28;20402;-74
2023/10/30 08:53:53;;;;;;;16.60;2.60;;;8.70;99.90;;;;;;4979411;28;20049;-75
2023/10/30 08:56:22;;;;;;;14.40;1.75;;;10.60;99.90;;;;;;4983597;28;20514;-75
2023/10/30 08:58:48;;;;;;;12.20;2.15;;;10.60;99.90;;;;;;4983498;28;20049;-76
2023/10/30 09:01:15;;;;;;;13.63;1.48;;;10.70;99.90;;;;;;4965568;28;20042;-76
2023/10/30 09:03:41;;;;;;;12.77;1.70;;;10.70;99.90;;;;;;4983734;28;20046;-75
2023/10/30 09:06:11;;;;;;;15.50;1.80;;;10.80;99.90;;;;;;4980573;28;20054;-74
2023/10/30 09:08:40;;;;;;;14.80;1.73;;;10.80;99.90;;;;;;4983589;28;20065;-74
2023/10/30 09:11:06;;;;;;;15.35;1.45;;;10.90;99.90;;;;;;4968737;28;20061;-75
2023/10/30 09:13:32;;;;;;;18.23;4.53;;;10.90;99.90;;;;;;4984874;28;20357;-74
2023/10/30 09:15:57;;;;;;;14.35;1.60;;;11.00;99.90;;;;;;4969715;28;20081;-75
2023/10/30 09:18:23;;;;;;;18.38;2.13;;;11.00;99.90;;;;;;4990766;28;20053;-74
2023/10/30 09:24:52;;;;;;;21.52;3.33;;;11.20;99.90;;;;;;512232;26;20467;-74
2023/10/30 09:27:23;;;;;;;18.70;3.10;;;11.40;99.90;;;;;;4904632;28;20054;-75
2023/10/30 09:29:52;;;;;;;11.63;2.00;;;11.40;99.90;;;;;;4938953;28;20576;-75
2023/10/30 09:32:31;;;;;;;14.35;2.55;;;11.50;99.90;;;;;;4935598;28;20185;-75
2023/10/30 09:34:59;;;;;;;13.45;1.77;;;11.60;99.90;;;;;;4942605;28;21085;-74
2023/10/30 09:37:37;;;;;;;18.42;1.55;;;11.60;99.90;;;;;;4938099;28;20141;-77
2023/10/30 09:40:07;;;;;;;13.43;1.50;;;11.70;99.90;;;;;;4936612;28;20071;-73
2023/10/30 09:42:34;;;;;;;12.43;1.77;;;11.80;99.90;;;;;;4928049;28;20058;-76
2023/10/30 09:47:47;;;;;;;15.98;1.73;;;11.90;99.90;;;;;;4923562;28;20148;-74
2023/10/30 09:50:22;;;;;;;12.68;2.40;;;11.90;99.90;;;;;;4928842;28;20197;-75
2023/10/30 09:52:51;;;;;;;9.73;2.20;;;12.00;99.90;;;;;;4925884;28;20061;-73
2023/10/30 09:55:19;;;;;;;8.55;1.50;;;12.00;99.90;;;;;;4950710;28;20093;-75
2023/10/30 09:57:52;;;;;;;14.55;1.40;;;12.00;99.90;;;;;;4930881;28;20153;-75
2023/10/30 10:00:28;;;;;;;11.55;1.67;;;12.00;99.90;;;;;;4954717;28;20062;-77
2023/10/30 10:06:03;;;;;;;15.57;1.90;;;12.00;99.90;;;;;;4925929;28;20760;-75
2023/10/30 10:08:29;;;;;;;17.30;1.90;;;12.00;99.90;;;;;;4937374;28;20058;-75
2023/10/30 10:11:02;;;;;;;10.32;1.23;;;12.00;99.90;;;;;;4939170;28;20677;-75
2023/10/30 10:13:33;;;;;;;11.25;1.45;;;11.90;99.90;;;;;;4932273;28;20116;-75
2023/10/30 10:16:01;;;;;;;14.10;1.60;;;11.90;99.90;;;;;;4920470;28;20082;-74
2023/10/30 10:18:39;;;;;;;11.88;1.65;;;11.90;99.90;;;;;;4966051;28;20359;-76
2023/10/30 10:21:13;;;;;;;18.58;1.88;;;12.00;99.90;;;;;;4945471;28;20050;-76
2023/10/30 10:23:47;;;;;;;9.93;1.10;;;12.00;99.90;;;;;;4956243;28;20074;-76
2023/10/30 10:26:17;;;;;;;11.40;1.48;;;12.00;99.90;;;;;;4941226;28;20085;-75
2023/10/30 10:29:03;;;;;;;11.77;2.63;;;12.10;99.90;;;;;;4939828;28;20062;-76
2023/10/30 10:31:42;;;;;;;11.23;1.83;;;12.10;99.90;;;;;;4920469;28;20694;-76
2023/10/30 10:34:09;;;;;;;12.75;2.17;;;12.20;99.90;;;;;;4934232;28;20050;-75
2023/10/30 10:36:34;;;;;;;10.07;1.00;;;12.40;99.90;;;;;;4934892;28;20059;-76
2023/10/30 10:39:04;;;;;;;14.13;1.33;;;12.50;99.90;;;;;;4920444;28;21348;-74
2023/10/30 10:41:57;;;;;;;13.52;2.45;;;12.70;99.90;;;;;;4940829;28;20674;-74
2023/10/30 10:44:29;;;;;;;10.27;1.50;;;12.90;99.90;;;;;;4922340;28;20058;-76
2023/10/30 10:47:09;;;;;;;15.52;1.25;;;13.00;99.90;;;;;;4903383;28;20103;-73
2023/10/30 10:49:43;;;;;;;10.38;0.98;;;13.00;99.90;;;;;;4952901;28;22035;-76
2023/10/30 10:52:31;;;;;;;6.22;1.00;;;13.10;99.90;;;;;;4948526;28;20051;-74
2023/10/30 10:55:39;;;;;;;18.33;3.47;;;13.20;99.90;;;;;;4907687;28;20073;-75
2023/10/30 10:58:17;;;;;;;12.23;1.20;;;15.00;99.90;;;;;;4919097;28;20054;-75
2023/10/30 11:03:48;;;;;;;15.73;1.33;;;13.50;99.90;;;;;;4921812;28;20548;-76
2023/10/30 11:06:20;;;;;;;11.93;1.67;;;13.70;99.90;;;;;;4928925;28;20070;-76
2023/10/30 11:09:10;;;;;;;14.77;1.60;;;13.80;99.90;;;;;;4930430;28;20523;-75
2023/10/30 11:11:47;;;;;;;11.55;1.48;;;13.40;99.90;;;;;;4912030;23;20051;-75
2023/10/30 11:14:33;;;;;;;10.32;1.65;;;13.90;99.90;;;;;;4960915;28;21191;-75
2023/10/30 11:17:04;;;;;;;15.68;1.13;;;11.40;99.90;;;;;;4968231;28;20809;-75
2023/10/30 11:19:39;;;;;;;14.10;0.93;;;13.90;99.90;;;;;;4977271;28;20447;-75
2023/10/30 11:22:08;;;;;;;9.35;1.65;;;13.90;99.90;;;;;;4973425;28;20137;-74
2023/10/30 11:24:45;;;;;;;17.80;1.45;;;13.90;99.90;;;;;;4957111;28;20383;-76
2023/10/30 11:27:27;;;;;;;16.13;1.33;;;14.00;99.90;;;;;;4991599;28;20069;-76
2023/10/30 11:30:00;;;;;;;13.47;1.60;;;14.00;99.90;;;;;;4959334;28;20061;-76
2023/10/30 11:32:31;;;;;;;12.27;0.90;;;14.00;99.90;;;;;;4990842;28;20317;-76
2023/10/30 11:34:59;;;;;;;11.38;1.90;;;14.10;99.90;;;;;;4975369;28;21084;-74
2023/10/30 11:37:27;;;;;;;10.43;0.98;;;14.10;99.90;;;;;;4971678;28;20049;-75
2023/10/30 11:40:04;;;;;;;13.05;1.80;;;14.20;99.90;;;;;;4994296;28;20053;-74
2023/10/30 11:42:43;;;;;;;13.75;1.42;;;14.30;99.90;;;;;;4966779;23;20057;-75
2023/10/30 11:45:19;;;;;;;13.98;2.88;;;14.30;99.90;;;;;;4979150;28;20069;-74
2023/10/30 11:49:16;;;;;;;9.27;1.15;;;14.30;99.90;;;;;;4966302;23;20058;-76
2023/10/30 11:52:25;;;;;;;7.63;1.33;;;14.20;99.90;;;;;;4971568;28;20088;-75
2023/10/30 11:59:13;;;;;;;11.48;1.77;;;17.00;99.90;;;;;;4864895;29;20053;-76
2023/10/30 12:01:40;;;;;;;11.65;1.75;;;13.90;99.90;;;;;;4817649;28;20072;-75
2023/10/30 12:04:09;;;;;;;10.40;1.50;;;13.90;99.90;;;;;;4956819;28;20069;-77
2023/10/30 12:06:35;;;;;;;15.65;1.88;;;13.90;99.90;;;;;;4964102;28;20062;-76
2023/10/30 12:09:01;;;;;;;12.55;1.05;;;13.80;99.90;;;;;;4957367;28;20104;-77
2023/10/30 12:11:30;;;;;;;16.25;3.35;;;13.80;99.90;;;;;;4974520;28;20045;-76
2023/10/30 12:13:58;;;;;;;12.85;1.10;;;13.80;99.90;;;;;;4972265;28;20070;-77
2023/10/30 12:16:26;;;;;;;7.00;0.77;;;13.80;99.90;;;;;;4970336;28;20055;-75
2023/10/30 12:18:52;;;;;;;9.18;1.30;;;13.80;99.90;;;;;;4966442;28;20049;-76
2023/10/30 12:21:23;;;;;;;6.10;1.00;;;13.80;99.90;;;;;;4975097;28;20049;-75
2023/10/30 12:24:14;;;;;;;13.13;2.22;;;13.80;99.90;;;;;;4950443;28;20855;-76
2023/10/30 12:26:46;;;;;;;11.27;0.98;;;13.80;99.90;;;;;;4964205;28;20124;-76
2023/10/30 12:29:24;;;;;;;13.55;1.38;;;13.90;99.90;;;;;;4967450;28;20069;-73
2023/10/30 12:32:05;;;;;;;9.63;1.30;;;13.90;99.90;;;;;;4967150;28;20041;-76
2023/10/30 12:34:36;;;;;;;15.63;2.00;;;13.90;99.90;;;;;;4969718;28;21285;-73
2023/10/30 12:37:40;;;;;;;11.50;1.90;;;13.90;99.90;;;;;;5001175;28;20041;-76
2023/10/30 12:40:12;;;;;;;8.07;1.20;;;13.90;99.90;;;;;;5006451;28;20848;-75
2023/10/30 12:42:42;;;;;;;;;;;14.00;99.90;;;;;;4989834;28;20045;-77
2023/10/30 12:45:14;;;;;;;11.50;1.60;;;14.00;99.90;;;;;;4987491;28;19929;-75
2023/10/30 12:51:00;;;;;;;8.65;1.30;;;14.10;99.90;;;;;;4955006;28;20058;-75
2023/10/30 12:53:33;;;;;;;8.30;1.00;;;14.10;99.90;;;;;;4967807;28;20050;-76
2023/10/30 12:56:02;;;;;;;13.77;1.50;;;14.10;99.90;;;;;;4943718;28;20057;-76
2023/10/30 12:58:31;;;;;;;10.95;1.27;;;14.20;99.90;;;;;;4942674;28;20053;-75
2023/10/30 13:01:03;;;;;;;9.23;1.25;;;14.20;99.90;;;;;;4967691;28;20045;-75
2023/10/30 13:03:29;;;;;;;11.07;1.25;;;14.20;99.90;;;;;;4990420;28;20054;-76
2023/10/30 13:05:55;;;;;;;11.68;1.13;;;14.20;99.90;;;;;;4961420;28;20057;-76
2023/10/30 13:08:30;;;;;;;14.98;2.35;;;14.20;99.90;;;;;;4957311;28;20065;-76
2023/10/30 13:10:57;;;;;;;11.27;1.23;;;14.20;99.90;;;;;;4965084;28;20108;-77
2023/10/30 13:13:33;;;;;;;10.07;0.85;;;14.10;99.90;;;;;;4949201;28;20050;-76
2023/10/30 13:16:10;;;;;;;14.38;2.10;;;14.10;99.90;;;;;;4959069;28;20924;-75